Time;durP1;ratioP1;P1;durP2;ratioP2;P2;SDS_P1;SDS_P2;PMS_P1;PMS_P2;Temp;Humidity;BMP_temperature;BMP_pressure;BME280_temperature;BME280_humidity;BME280_pressure;Samples;Min_cycle;Max_cycle;Signal;HPM_P1;HPM_P2
2022/01/09 00:00:59;;;;;;;;;;;1.70;99.90;;;;;;5030932;28;19913;-87
2022/01/09 00:03:24;;;;;;;;;;;1.70;99.90;;;;;;5036419;28;20250;-87
2022/01/09 00:05:50;;;;;;;;;;;1.60;99.90;;;;;;5036040;28;20270;-88
2022/01/09 00:08:16;;;;;;;;;;;1.60;99.90;;;;;;5019060;28;19947;-88
2022/01/09 00:10:46;;;;;;;;;;;1.40;99.90;;;;;;5038550;28;20000;-85
2022/01/09 00:13:12;;;;;;;;;;;1.30;99.90;;;;;;5052216;28;20389;-87
2022/01/09 00:15:38;;;;;;;;;;;1.30;99.90;;;;;;5041950;28;19925;-85
2022/01/09 00:18:04;;;;;;;;;;;1.20;99.90;;;;;;5037422;28;19913;-87
2022/01/09 00:20:29;;;;;;;;;;;1.30;99.90;;;;;;5051633;28;19924;-88
2022/01/09 00:22:55;;;;;;;;;;;1.30;99.90;;;;;;5035720;28;19921;-87
2022/01/09 00:25:21;;;;;;;;;;;1.30;99.90;;;;;;5034765;28;19924;-86
2022/01/09 00:27:48;;;;;;;;;;;1.20;99.90;;;;;;5051329;28;19921;-86
2022/01/09 00:30:14;;;;;;;;;;;1.20;99.90;;;;;;5035648;28;19940;-87
2022/01/09 00:32:40;;;;;;;;;;;1.10;99.90;;;;;;5035003;28;19913;-85
2022/01/09 00:35:08;;;;;;;;;;;1.10;99.90;;;;;;5034894;28;19909;-86
2022/01/09 00:37:34;;;;;;;;;;;1.10;99.90;;;;;;5014992;28;19914;-87
2022/01/09 00:40:00;;;;;;;;;;;1.10;99.90;;;;;;5014007;28;19914;-88
2022/01/09 00:42:26;;;;;;;;;;;1.00;99.90;;;;;;5031789;28;19957;-87
2022/01/09 00:44:51;;;;;;;;;;;1.10;99.90;;;;;;5015573;28;20317;-86
2022/01/09 00:47:17;;;;;;;;;;;1.00;99.90;;;;;;5015905;28;19919;-86
2022/01/09 00:49:42;;;;;;;;;;;1.10;99.90;;;;;;5015435;28;19910;-86
2022/01/09 00:52:08;;;;;;;;;;;1.00;99.90;;;;;;5020204;28;19958;-87
2022/01/09 00:54:34;;;;;;;;;;;0.90;99.90;;;;;;5034166;28;19952;-87
2022/01/09 00:56:59;;;;;;;;;;;1.00;99.90;;;;;;5034916;28;19909;-86
2022/01/09 00:59:25;;;;;;;;;;;0.90;99.90;;;;;;5034030;28;19913;-86
2022/01/09 01:01:51;;;;;;;;;;;0.90;99.90;;;;;;5033668;28;19931;-86
2022/01/09 01:04:16;;;;;;;;;;;1.00;99.90;;;;;;5034035;28;19913;-87
2022/01/09 01:06:42;;;;;;;;;;;0.90;99.90;;;;;;5033690;28;19963;-87
2022/01/09 01:09:07;;;;;;;;;;;0.90;99.90;;;;;;5017412;28;19917;-86
2022/01/09 01:11:33;;;;;;;;;;;0.90;99.90;;;;;;5033934;28;19913;-86
2022/01/09 01:13:59;;;;;;;;;;;0.90;99.90;;;;;;5034816;28;19913;-85
2022/01/09 01:16:24;;;;;;;;;;;0.90;99.90;;;;;;5017179;28;19936;-87
2022/01/09 01:18:55;;;;;;;;;;;0.90;99.90;;;;;;5034906;28;20280;-88
2022/01/09 01:21:23;;;;;;;;;;;0.90;99.90;;;;;;5017652;28;19916;-87
2022/01/09 01:23:49;;;;;;;;;;;0.90;99.90;;;;;;5017658;28;19944;-86
2022/01/09 01:26:14;;;;;;;;;;;0.90;99.90;;;;;;4996346;28;20324;-87
2022/01/09 01:28:40;;;;;;;;;;;0.80;99.90;;;;;;5006792;28;19975;-86
2022/01/09 01:31:05;;;;;;;;;;;0.80;99.90;;;;;;5029809;28;19940;-88
2022/01/09 01:33:31;;;;;;;;;;;0.80;99.90;;;;;;5013677;28;19963;-86
2022/01/09 01:35:57;;;;;;;;;;;0.80;99.90;;;;;;5013619;28;19976;-86
2022/01/09 01:38:22;;;;;;;;;;;0.90;99.90;;;;;;4997283;28;19913;-86
2022/01/09 01:40:48;;;;;;;;;;;0.80;99.90;;;;;;5013702;28;19913;-86
2022/01/09 01:43:14;;;;;;;;;;;0.90;99.90;;;;;;5014784;28;19917;-87
2022/01/09 01:45:43;;;;;;;;;;;0.90;99.90;;;;;;5014483;28;19909;-86
2022/01/09 01:48:09;;;;;;;;;;;1.00;99.90;;;;;;5013645;28;19913;-87
2022/01/09 01:50:38;;;;;;;;;;;1.00;99.90;;;;;;5013381;28;19916;-86
2022/01/09 01:53:06;;;;;;;;;;;0.90;99.90;;;;;;5013505;28;20285;-87
2022/01/09 01:55:36;;;;;;;;;;;1.00;99.90;;;;;;5013556;28;20400;-86
2022/01/09 01:58:02;;;;;;;;;;;1.10;99.90;;;;;;5014771;28;19913;-86
2022/01/09 02:00:27;;;;;;;;;;;1.10;99.90;;;;;;5014320;28;19917;-86
2022/01/09 02:02:56;;;;;;;;;;;1.10;99.90;;;;;;5014375;28;20285;-87
2022/01/09 02:05:22;;;;;;;;;;;1.10;99.90;;;;;;5013347;28;19913;-87
2022/01/09 02:07:49;;;;;;;;;;;1.10;99.90;;;;;;4995945;28;19914;-87
2022/01/09 02:10:15;;;;;;;;;;;1.10;99.90;;;;;;4993671;28;19913;-86
2022/01/09 02:12:41;;;;;;;;;;;1.10;99.90;;;;;;4994543;28;20369;-86
2022/01/09 02:15:25;;;;;;;;;;;1.20;99.90;;;;;;5014411;28;20370;-89
2022/01/09 02:17:50;;;;;;;;;;;1.10;99.90;;;;;;5003364;28;19909;-87
2022/01/09 02:20:16;;;;;;;;;;;1.20;99.90;;;;;;5014533;28;19917;-86
2022/01/09 02:22:42;;;;;;;;;;;1.30;99.90;;;;;;5019543;28;20011;-87
2022/01/09 02:25:07;;;;;;;;;;;1.30;99.90;;;;;;5032997;28;19913;-89
2022/01/09 02:27:33;;;;;;;;;;;1.40;99.90;;;;;;5035187;28;19924;-86
2022/01/09 02:29:59;;;;;;;;;;;1.40;99.90;;;;;;5040880;28;19936;-87
2022/01/09 02:32:27;;;;;;;;;;;1.40;99.90;;;;;;5037529;28;19917;-87
2022/01/09 02:34:52;;;;;;;;;;;1.50;99.90;;;;;;5038836;28;19909;-87
2022/01/09 02:37:18;;;;;;;;;;;1.50;99.90;;;;;;5033639;28;19915;-87
2022/01/09 02:39:44;;;;;;;;;;;1.50;99.90;;;;;;5033103;28;19909;-87
2022/01/09 02:42:19;;;;;;;;;;;1.40;99.90;;;;;;5034381;28;19955;-87
2022/01/09 02:44:47;;;;;;;;;;;1.40;99.90;;;;;;5033176;28;20336;-88
2022/01/09 02:47:13;;;;;;;;;;;1.60;99.90;;;;;;5033408;28;19913;-87
2022/01/09 02:49:39;;;;;;;;;;;1.70;99.90;;;;;;5033352;28;20021;-87
2022/01/09 02:52:11;;;;;;;;;;;1.80;99.90;;;;;;5033241;28;20000;-87
2022/01/09 02:57:21;;;;;;;;;;;1.90;99.90;;;;;;5035091;28;19955;-87
2022/01/09 02:59:47;;;;;;;;;;;2.00;99.90;;;;;;5033074;28;19952;-89
2022/01/09 03:02:12;;;;;;;;;;;2.00;99.90;;;;;;5032775;28;20422;-87
2022/01/09 03:04:38;;;;;;;;;;;2.00;99.90;;;;;;5037042;28;19913;-88
2022/01/09 03:07:04;;;;;;;;;;;2.00;99.90;;;;;;5036993;28;19913;-87
2022/01/09 03:09:32;;;;;;;;;;;2.10;99.90;;;;;;5037050;28;19920;-88
2022/01/09 03:12:00;;;;;;;;;;;2.00;99.90;;;;;;5036853;28;19909;-88
2022/01/09 03:14:26;;;;;;;;;;;2.00;99.90;;;;;;5036881;28;19910;-87
2022/01/09 03:16:51;;;;;;;;;;;2.10;99.90;;;;;;5036749;28;19916;-88
2022/01/09 03:19:20;;;;;;;;;;;2.10;99.90;;;;;;5036684;28;19919;-88
2022/01/09 03:21:46;;;;;;;;;;;2.00;99.90;;;;;;5036652;28;19910;-88
2022/01/09 03:24:12;;;;;;;;;;;2.00;99.90;;;;;;5037119;28;19917;-88
2022/01/09 03:26:37;;;;;;;;;;;2.00;99.90;;;;;;5037601;28;19909;-87
2022/01/09 03:29:03;;;;;;;;;;;2.10;99.90;;;;;;5037465;28;19962;-88
2022/01/09 03:31:29;;;;;;;;;;;2.10;99.90;;;;;;5036875;28;19995;-88
2022/01/09 03:33:55;;;;;;;;;;;2.10;99.90;;;;;;5037583;28;19909;-87
2022/01/09 03:36:20;;;;;;;;;;;2.10;99.90;;;;;;5036756;28;20353;-88
2022/01/09 03:38:46;;;;;;;;;;;2.10;99.90;;;;;;5036747;28;19909;-88
2022/01/09 03:41:12;;;;;;;;;;;2.10;99.90;;;;;;5036931;28;19952;-87
2022/01/09 03:43:37;;;;;;;;;;;2.10;99.90;;;;;;5038099;28;19913;-87
2022/01/09 03:46:03;;;;;;;;;;;2.10;99.90;;;;;;5036224;28;19917;-88
2022/01/09 03:48:30;;;;;;;;;;;2.10;99.90;;;;;;5036224;28;19917;-89
2022/01/09 03:50:55;;;;;;;;;;;2.00;99.90;;;;;;5036244;28;19949;-88
2022/01/09 03:53:21;;;;;;;;;;;2.00;99.90;;;;;;5035885;28;19983;-89
2022/01/09 03:55:46;;;;;;;;;;;2.00;99.90;;;;;;5035799;28;20363;-88
2022/01/09 03:58:12;;;;;;;;;;;2.00;99.90;;;;;;5052046;28;19913;-89
2022/01/09 04:00:38;;;;;;;;;;;2.00;99.90;;;;;;5018636;28;20782;-88
2022/01/09 04:03:03;;;;;;;;;;;2.00;99.90;;;;;;5021031;28;19913;-87
2022/01/09 04:05:29;;;;;;;;;;;2.10;99.90;;;;;;5015814;28;20258;-87
2022/01/09 04:07:55;;;;;;;;;;;2.10;99.90;;;;;;5031896;28;19917;-86
2022/01/09 04:10:22;;;;;;;;;;;2.10;99.90;;;;;;5015551;28;19918;-85
2022/01/09 04:12:50;;;;;;;;;;;2.10;99.90;;;;;;5017087;28;19914;-86
2022/01/09 04:15:16;;;;;;;;;;;2.20;99.90;;;;;;5034001;28;20384;-87
2022/01/09 04:17:57;;;;;;;;;;;2.10;99.90;;;;;;5036091;28;20319;-86
2022/01/09 04:20:26;;;;;;;;;;;2.10;99.90;;;;;;5028954;28;19963;-87
2022/01/09 04:22:52;;;;;;;;;;;2.10;99.90;;;;;;5034869;28;19971;-86
2022/01/09 04:25:18;;;;;;;;;;;2.10;99.90;;;;;;5034972;28;20353;-86
2022/01/09 04:27:44;;;;;;;;;;;2.20;99.90;;;;;;5034510;28;19921;-88
2022/01/09 04:30:10;;;;;;;;;;;2.20;99.90;;;;;;5036274;28;20376;-87
2022/01/09 04:32:36;;;;;;;;;;;2.20;99.90;;;;;;5035663;28;19977;-88
2022/01/09 04:35:02;;;;;;;;;;;2.20;99.90;;;;;;5034531;28;19909;-84
2022/01/09 04:37:28;;;;;;;;;;;2.20;99.90;;;;;;5035841;28;19914;-86
2022/01/09 04:39:54;;;;;;;;;;;2.20;99.90;;;;;;5034649;28;19958;-87
2022/01/09 04:42:29;;;;;;;;;;;2.10;99.90;;;;;;5034710;28;19913;-87
2022/01/09 04:44:55;;;;;;;;;;;2.10;99.90;;;;;;5035498;28;19923;-88
2022/01/09 04:47:21;;;;;;;;;;;2.00;99.90;;;;;;5021140;28;19917;-86
2022/01/09 04:49:48;;;;;;;;;;;2.10;99.90;;;;;;5043181;28;19995;-86
2022/01/09 04:52:18;;;;;;;;;;;2.20;99.90;;;;;;5043769;28;19921;-89
2022/01/09 04:54:43;;;;;;;;;;;2.20;99.90;;;;;;5055056;28;19984;-87
2022/01/09 04:57:09;;;;;;;;;;;2.20;99.90;;;;;;5035459;28;20386;-86
2022/01/09 04:59:35;;;;;;;;;;;2.10;99.90;;;;;;5018364;28;20377;-87
2022/01/09 05:02:01;;;;;;;;;;;2.10;99.90;;;;;;5013708;28;19948;-87
2022/01/09 05:04:26;;;;;;;;;;;2.20;99.90;;;;;;5014088;28;19916;-88
2022/01/09 05:06:52;;;;;;;;;;;2.10;99.90;;;;;;5030473;28;19917;-86
2022/01/09 05:09:18;;;;;;;;;;;2.10;99.90;;;;;;5014159;28;19961;-86
2022/01/09 05:11:43;;;;;;;;;;;2.10;99.90;;;;;;5013883;28;19916;-85
2022/01/09 05:14:09;;;;;;;;;;;2.10;99.90;;;;;;5021032;28;20043;-87
2022/01/09 05:16:34;;;;;;;;;;;2.10;99.90;;;;;;5014097;28;19916;-90
2022/01/09 05:19:06;;;;;;;;;;;2.00;99.90;;;;;;5014001;28;20356;-86
2022/01/09 05:21:32;;;;;;;;;;;1.90;99.90;;;;;;5015755;28;20308;-86
2022/01/09 05:23:58;;;;;;;;;;;1.90;99.90;;;;;;5017763;28;19917;-86
2022/01/09 05:26:23;;;;;;;;;;;1.70;99.90;;;;;;5033472;28;20351;-87
2022/01/09 05:28:49;;;;;;;;;;;1.60;99.90;;;;;;5035132;28;19975;-86
2022/01/09 05:31:14;;;;;;;;;;;1.60;99.90;;;;;;5033864;28;19940;-85
2022/01/09 05:33:43;;;;;;;;;;;1.50;99.90;;;;;;5009306;28;19925;-88
2022/01/09 05:36:09;;;;;;;;;;;1.40;99.90;;;;;;5024660;28;19913;-85
2022/01/09 05:38:35;;;;;;;;;;;1.40;99.90;;;;;;5021809;28;19978;-88
2022/01/09 05:41:00;;;;;;;;;;;1.20;99.90;;;;;;5033013;28;19913;-86
2022/01/09 05:43:26;;;;;;;;;;;1.10;99.90;;;;;;5034292;28;19913;-85
2022/01/09 05:45:51;;;;;;;;;;;1.10;99.90;;;;;;5030961;28;19964;-86
2022/01/09 05:48:17;;;;;;;;;;;1.10;99.90;;;;;;5030087;28;19974;-87
2022/01/09 05:50:43;;;;;;;;;;;1.00;99.90;;;;;;5020474;28;19971;-86
2022/01/09 05:53:09;;;;;;;;;;;1.00;99.90;;;;;;5033037;28;19999;-88
2022/01/09 05:55:35;;;;;;;;;;;1.10;99.90;;;;;;5034254;28;19980;-87
2022/01/09 05:58:00;;;;;;;;;;;1.10;99.90;;;;;;5033156;28;20003;-86
2022/01/09 06:00:26;;;;;;;;;;;1.10;99.90;;;;;;5032447;28;20051;-89
2022/01/09 06:02:51;;;;;;;;;;;1.10;99.90;;;;;;5039572;28;20318;-89
2022/01/09 06:05:17;;;;;;;;;;;1.20;99.90;;;;;;5026303;28;19940;-87
2022/01/09 06:07:43;;;;;;;;;;;1.20;99.90;;;;;;5032631;28;19967;-86
2022/01/09 06:10:10;;;;;;;;;;;1.20;99.90;;;;;;5049941;28;19913;-86
2022/01/09 06:12:35;;;;;;;;;;;1.20;99.90;;;;;;5032640;28;19938;-86
2022/01/09 06:15:02;;;;;;;;;;;1.20;99.90;;;;;;5033132;28;19936;-86
2022/01/09 06:17:27;;;;;;;;;;;1.20;99.90;;;;;;5049921;28;19913;-86
2022/01/09 06:19:53;;;;;;;;;;;1.20;99.90;;;;;;5032844;28;19920;-85
2022/01/09 06:22:19;;;;;;;;;;;1.20;99.90;;;;;;5049144;28;19913;-87
2022/01/09 06:24:46;;;;;;;;;;;1.20;99.90;;;;;;5034060;28;19909;-87
2022/01/09 06:27:12;;;;;;;;;;;1.20;99.90;;;;;;5032849;28;19960;-86
2022/01/09 06:29:38;;;;;;;;;;;1.20;99.90;;;;;;5034456;28;19909;-86
2022/01/09 06:32:04;;;;;;;;;;;1.20;99.90;;;;;;5032018;28;19924;-87
2022/01/09 06:34:30;;;;;;;;;;;1.20;99.90;;;;;;5035433;28;19916;-86
2022/01/09 06:36:55;;;;;;;;;;;1.20;99.90;;;;;;5032721;28;19967;-88
2022/01/09 06:39:21;;;;;;;;;;;1.10;99.90;;;;;;5031712;28;19913;-84
2022/01/09 06:41:47;;;;;;;;;;;1.20;99.90;;;;;;5032425;28;19923;-86
2022/01/09 06:44:13;;;;;;;;;;;1.30;99.90;;;;;;5027227;28;19913;-86
2022/01/09 06:46:38;;;;;;;;;;;1.30;99.90;;;;;;5029131;28;20258;-87
2022/01/09 06:49:04;;;;;;;;;;;1.30;99.90;;;;;;5033650;28;20015;-87
2022/01/09 06:51:30;;;;;;;;;;;1.40;99.90;;;;;;5032235;28;19909;-85
2022/01/09 06:53:55;;;;;;;;;;;1.40;99.90;;;;;;5032089;28;19917;-89
2022/01/09 06:56:21;;;;;;;;;;;1.30;99.90;;;;;;5033487;28;19924;-88
2022/01/09 06:58:47;;;;;;;;;;;1.30;99.90;;;;;;5032140;28;19943;-85
2022/01/09 07:01:13;;;;;;;;;;;1.30;99.90;;;;;;5015160;28;20293;-88
2022/01/09 07:03:39;;;;;;;;;;;1.40;99.90;;;;;;5033608;28;19917;-86
2022/01/09 07:06:04;;;;;;;;;;;1.40;99.90;;;;;;5034362;28;20071;-87
2022/01/09 07:08:33;;;;;;;;;;;1.50;99.90;;;;;;5039493;28;19921;-88
2022/01/09 07:10:59;;;;;;;;;;;1.40;99.90;;;;;;5040863;28;19921;-87
2022/01/09 07:13:25;;;;;;;;;;;1.50;99.90;;;;;;5054666;28;19943;-87
2022/01/09 07:15:51;;;;;;;;;;;1.40;99.90;;;;;;5032844;28;19909;-85
2022/01/09 07:18:16;;;;;;;;;;;1.50;99.90;;;;;;5032104;28;19913;-88
2022/01/09 07:20:42;;;;;;;;;;;1.40;99.90;;;;;;5032088;28;20380;-86
2022/01/09 07:23:08;;;;;;;;;;;1.40;99.90;;;;;;5048218;28;19924;-88
2022/01/09 07:25:33;;;;;;;;;;;1.40;99.90;;;;;;5048741;28;19956;-86
2022/01/09 07:27:59;;;;;;;;;;;1.40;99.90;;;;;;5021600;28;19928;-87
2022/01/09 07:30:27;;;;;;;;;;;1.40;99.90;;;;;;5022225;28;19913;-88
2022/01/09 07:32:53;;;;;;;;;;;1.40;99.90;;;;;;5031538;28;19909;-86
2022/01/09 07:35:18;;;;;;;;;;;1.40;99.90;;;;;;5031786;28;19916;-85
2022/01/09 07:37:44;;;;;;;;;;;1.40;99.90;;;;;;5031522;28;19913;-86
2022/01/09 07:40:10;;;;;;;;;;;1.40;99.90;;;;;;5031911;28;19924;-87
2022/01/09 07:42:36;;;;;;;;;;;1.30;99.90;;;;;;5015490;28;19920;-86
2022/01/09 07:45:06;;;;;;;;;;;1.30;99.90;;;;;;5031955;28;19910;-85
2022/01/09 07:47:32;;;;;;;;;;;1.30;99.90;;;;;;5027372;28;19913;-89
2022/01/09 07:50:03;;;;;;;;;;;1.30;99.90;;;;;;5033809;28;19913;-86
2022/01/09 07:52:29;;;;;;;;;;;1.30;99.90;;;;;;5036735;28;19919;-87
2022/01/09 07:54:54;;;;;;;;;;;1.20;99.90;;;;;;5036528;28;20000;-86
2022/01/09 07:57:22;;;;;;;;;;;1.30;99.90;;;;;;5035774;28;19928;-86
2022/01/09 07:59:48;;;;;;;;;;;1.20;99.90;;;;;;5034973;28;19913;-85
2022/01/09 08:02:13;;;;;;;;;;;1.30;99.90;;;;;;5018257;28;19939;-87
2022/01/09 08:04:39;;;;;;;;;;;1.30;99.90;;;;;;5036152;28;19920;-88
2022/01/09 08:07:04;;;;;;;;;;;1.20;99.90;;;;;;5035148;28;20056;-84
2022/01/09 08:09:30;;;;;;;;;;;1.20;99.90;;;;;;5034397;28;19914;-87
2022/01/09 08:11:56;;;;;;;;;;;1.20;99.90;;;;;;5034164;28;20672;-86
2022/01/09 08:14:21;;;;;;;;;;;1.20;99.90;;;;;;5035942;28;20281;-87
2022/01/09 08:16:47;;;;;;;;;;;1.20;99.90;;;;;;5034609;28;19913;-88
2022/01/09 08:19:13;;;;;;;;;;;1.10;99.90;;;;;;5034596;28;19983;-87
2022/01/09 08:21:39;;;;;;;;;;;1.10;99.90;;;;;;5023259;28;19996;-86
2022/01/09 08:24:04;;;;;;;;;;;1.10;99.90;;;;;;5014717;28;19988;-86
2022/01/09 08:26:30;;;;;;;;;;;1.10;99.90;;;;;;5034635;28;19996;-89
2022/01/09 08:28:56;;;;;;;;;;;1.00;99.90;;;;;;5032861;28;19955;-85
2022/01/09 08:31:22;;;;;;;;;;;1.00;99.90;;;;;;5014369;28;19939;-85
2022/01/09 08:33:48;;;;;;;;;;;1.00;99.90;;;;;;5015955;28;19951;-88
2022/01/09 08:36:13;;;;;;;;;;;1.10;99.90;;;;;;5019131;28;19949;-86
2022/01/09 08:38:40;;;;;;;;;;;1.10;99.90;;;;;;5032593;28;19953;-87
2022/01/09 08:41:06;;;;;;;;;;;1.10;99.90;;;;;;5033870;28;19919;-87
2022/01/09 08:43:32;;;;;;;;;;;1.20;99.90;;;;;;5034002;28;19913;-85
2022/01/09 08:45:57;;;;;;;;;;;1.20;99.90;;;;;;5034031;28;20395;-87
2022/01/09 08:48:23;;;;;;;;;;;1.20;99.90;;;;;;5021360;28;19939;-87
2022/01/09 08:50:49;;;;;;;;;;;1.20;99.90;;;;;;5009507;28;19917;-86
2022/01/09 08:53:15;;;;;;;;;;;1.30;99.90;;;;;;5028635;28;19917;-86
2022/01/09 08:55:41;;;;;;;;;;;1.30;99.90;;;;;;5027147;28;19913;-87
2022/01/09 08:58:06;;;;;;;;;;;1.50;99.90;;;;;;5040627;28;19916;-86
2022/01/09 09:00:32;;;;;;;;;;;1.50;99.90;;;;;;5032364;28;19995;-86
2022/01/09 09:02:58;;;;;;;;;;;1.50;99.90;;;;;;5035455;28;19917;-87
2022/01/09 09:05:23;;;;;;;;;;;1.50;99.90;;;;;;5020927;28;19920;-85
2022/01/09 09:07:49;;;;;;;;;;;1.50;99.90;;;;;;5028657;28;20373;-87
2022/01/09 09:10:15;;;;;;;;;;;1.50;99.90;;;;;;5034052;28;19913;-88
2022/01/09 09:12:41;;;;;;;;;;;1.60;99.90;;;;;;5033905;28;19948;-88
2022/01/09 09:15:06;;;;;;;;;;;1.60;99.90;;;;;;5034258;28;19909;-87
2022/01/09 09:17:32;;;;;;;;;;;1.60;99.90;;;;;;5040819;28;20364;-86
2022/01/09 09:20:01;;;;;;;;;;;1.60;99.90;;;;;;5033813;28;19917;-87
2022/01/09 09:22:26;;;;;;;;;;;1.60;99.90;;;;;;5033810;28;20284;-87
2022/01/09 09:24:52;;;;;;;;;;;1.60;99.90;;;;;;5035569;28;20012;-87
2022/01/09 09:27:18;;;;;;;;;;;1.60;99.90;;;;;;5039049;28;19948;-86
2022/01/09 09:29:44;;;;;;;;;;;1.70;99.90;;;;;;5040365;28;19959;-88
2022/01/09 09:32:13;;;;;;;;;;;1.70;99.90;;;;;;5037655;28;19921;-87
2022/01/09 09:34:39;;;;;;;;;;;1.70;99.90;;;;;;5034665;28;19913;-86
2022/01/09 09:37:08;;;;;;;;;;;1.70;99.90;;;;;;5033465;28;19971;-86
2022/01/09 09:39:34;;;;;;;;;;;1.80;99.90;;;;;;5043747;28;19909;-86
2022/01/09 09:42:00;;;;;;;;;;;1.80;99.90;;;;;;5053239;28;19909;-87
2022/01/09 09:44:25;;;;;;;;;;;1.80;99.90;;;;;;5040414;28;19913;-85
2022/01/09 09:46:53;;;;;;;;;;;1.80;99.90;;;;;;5032065;28;19957;-87
2022/01/09 09:49:19;;;;;;;;;;;1.80;99.90;;;;;;5033813;28;19917;-87
2022/01/09 09:51:45;;;;;;;;;;;1.90;99.90;;;;;;5024121;28;19909;-85
2022/01/09 09:54:11;;;;;;;;;;;1.90;99.90;;;;;;5032281;28;19917;-88
2022/01/09 09:56:37;;;;;;;;;;;1.90;99.90;;;;;;5033231;28;20406;-87
2022/01/09 09:59:02;;;;;;;;;;;2.00;99.90;;;;;;5032034;28;19913;-86
2022/01/09 10:01:30;;;;;;;;;;;2.00;99.90;;;;;;5032508;28;19913;-87
2022/01/09 10:03:57;;;;;;;;;;;2.00;99.90;;;;;;5032761;28;19947;-85
2022/01/09 10:06:38;;;;;;;;;;;1.90;99.90;;;;;;5018427;28;19909;-85
2022/01/09 10:09:09;;;;;;;;;;;1.90;99.90;;;;;;5049414;28;20428;-86
2022/01/09 10:11:46;;;;;;;;;;;1.90;99.90;;;;;;5025123;28;19917;-85
2022/01/09 10:14:15;;;;;;;;;;;1.90;99.90;;;;;;5030027;28;19953;-85
2022/01/09 10:16:40;;;;;;;;;;;1.90;99.90;;;;;;5032625;28;19920;-86
2022/01/09 10:19:06;;;;;;;;;;;1.80;99.90;;;;;;5034372;28;19909;-87
2022/01/09 10:21:31;;;;;;;;;;;1.80;99.90;;;;;;5032742;28;19966;-87
2022/01/09 10:24:03;;;;;;;;;;;1.80;99.90;;;;;;5023164;28;19925;-88
2022/01/09 10:26:29;;;;;;;;;;;1.90;99.90;;;;;;5032443;28;20364;-87
2022/01/09 10:28:55;;;;;;;;;;;1.90;99.90;;;;;;5032707;28;19921;-85
2022/01/09 10:31:21;;;;;;;;;;;1.90;99.90;;;;;;5033429;28;19940;-85
2022/01/09 10:34:01;;;;;;;;;;;1.90;99.90;;;;;;5032468;28;19948;-85
2022/01/09 10:36:37;;;;;;;;;;;2.00;99.90;;;;;;5032771;28;19909;-87
2022/01/09 10:39:10;;;;;;;;;;;2.10;99.90;;;;;;5032558;28;19909;-87
2022/01/09 10:41:46;;;;;;;;;;;2.20;99.90;;;;;;5033910;28;20418;-86
2022/01/09 10:44:13;;;;;;;;;;;2.30;99.90;;;;;;5032187;28;20356;-88
2022/01/09 10:46:39;;;;;;;;;;;2.30;99.90;;;;;;5033412;28;19943;-87
2022/01/09 10:49:04;;;;;;;;;;;2.40;99.90;;;;;;5033009;28;19967;-86
2022/01/09 10:51:30;;;;;;;;;;;2.40;99.90;;;;;;5029125;28;19921;-87
2022/01/09 10:53:58;;;;;;;;;;;2.40;99.90;;;;;;5032128;28;19921;-87
2022/01/09 10:56:25;;;;;;;;;;;2.40;99.90;;;;;;5031807;28;19913;-86
2022/01/09 10:58:51;;;;;;;;;;;2.40;99.90;;;;;;5045211;28;19958;-86
2022/01/09 11:01:25;;;;;;;;;;;2.30;99.90;;;;;;5031739;28;20380;-86
2022/01/09 11:03:51;;;;;;;;;;;2.20;99.90;;;;;;5012127;28;19920;-85
2022/01/09 11:06:17;;;;;;;;;;;2.10;99.90;;;;;;5029675;28;19996;-88
2022/01/09 11:08:43;;;;;;;;;;;1.90;99.90;;;;;;5032232;28;19925;-88
2022/01/09 11:11:17;;;;;;;;;;;1.90;99.90;;;;;;5033193;28;19909;-88
2022/01/09 11:13:44;;;;;;;;;;;1.90;99.90;;;;;;5037081;28;20011;-86
2022/01/09 11:18:57;;;;;;;;;;;1.90;99.90;;;;;;5031311;28;20010;-86
2022/01/09 11:21:23;;;;;;;;;;;2.00;99.90;;;;;;5033998;28;20004;-86
2022/01/09 11:23:48;;;;;;;;;;;2.00;99.90;;;;;;5032611;28;20345;-87
2022/01/09 11:26:16;;;;;;;;;;;2.00;99.90;;;;;;5037800;28;19909;-87
2022/01/09 11:28:41;;;;;;;;;;;2.00;99.90;;;;;;5036316;28;19917;-85
2022/01/09 11:31:07;;;;;;;;;;;2.10;99.90;;;;;;5036058;28;19971;-86
2022/01/09 11:33:45;;;;;;;;;;;2.10;99.90;;;;;;5036030;28;20266;-88
2022/01/09 11:36:23;;;;;;;;;;;2.10;99.90;;;;;;5034189;28;20407;-86
2022/01/09 11:38:55;;;;;;;;;;;2.10;99.90;;;;;;5052671;28;19913;-86
2022/01/09 11:41:24;;;;;;;;;;;2.00;99.90;;;;;;5041689;28;19928;-88
2022/01/09 11:43:50;;;;;;;;;;;1.90;99.90;;;;;;5025412;28;19914;-88
2022/01/09 11:46:16;;;;;;;;;;;2.00;99.90;;;;;;5037766;28;19913;-86
2022/01/09 11:48:51;;;;;;;;;;;2.00;99.90;;;;;;5029794;28;19932;-87
2022/01/09 11:51:17;;;;;;;;;;;2.10;99.90;;;;;;5031811;28;19913;-87
2022/01/09 11:54:02;;;;;;;;;;;2.20;99.90;;;;;;5031335;28;20448;-89
2022/01/09 11:56:43;;;;;;;;;;;2.20;99.90;;;;;;5022041;28;19928;-87
2022/01/09 11:59:21;;;;;;;;;;;2.30;99.90;;;;;;5042132;28;20044;-90
2022/01/09 12:01:47;;;;;;;;;;;2.40;99.90;;;;;;5051393;28;19913;-88
2022/01/09 12:04:32;;;;;;;;;;;2.40;99.90;;;;;;5018719;28;19917;-87
2022/01/09 12:06:58;;;;;;;;;;;2.40;99.90;;;;;;5041534;28;19947;-88
2022/01/09 12:09:42;;;;;;;;;;;2.60;99.90;;;;;;5035475;28;19913;-86
2022/01/09 12:12:09;;;;;;;;;;;2.60;99.90;;;;;;5036021;28;19921;-89
2022/01/09 12:14:44;;;;;;;;;;;2.70;99.90;;;;;;5036613;28;19913;-86
2022/01/09 12:17:26;;;;;;;;;;;2.70;99.90;;;;;;5036012;28;19909;-86
2022/01/09 12:20:05;;;;;;;;;;;2.80;99.90;;;;;;5030211;28;19949;-88
2022/01/09 12:22:44;;;;;;;;;;;2.80;99.90;;;;;;5035985;28;19913;-89
2022/01/09 12:25:10;;;;;;;;;;;2.80;99.90;;;;;;5016591;28;19914;-86
2022/01/09 12:27:38;;;;;;;;;;;2.80;99.90;;;;;;5035014;28;20312;-88
2022/01/09 12:30:04;;;;;;;;;;;2.80;99.90;;;;;;5051921;28;19959;-88
2022/01/09 12:32:39;;;;;;;;;;;2.70;99.90;;;;;;5034245;28;19921;-88
2022/01/09 12:35:12;;;;;;;;;;;2.70;99.90;;;;;;5032612;28;19916;-87
2022/01/09 12:37:37;;;;;;;;;;;2.50;99.90;;;;;;5034355;28;19921;-89
2022/01/09 12:40:04;;;;;;;;;;;2.50;99.90;;;;;;5034244;28;20380;-88
2022/01/09 12:42:30;;;;;;;;;;;2.40;99.90;;;;;;5034558;28;19916;-89
2022/01/09 12:44:56;;;;;;;;;;;2.20;99.90;;;;;;5032751;28;19913;-86
2022/01/09 12:47:22;;;;;;;;;;;2.20;99.90;;;;;;5035788;28;19917;-86
2022/01/09 12:49:47;;;;;;;;;;;2.20;99.90;;;;;;5034172;28;19917;-86
2022/01/09 12:52:20;;;;;;;;;;;2.20;99.90;;;;;;5035392;28;19913;-86
2022/01/09 12:54:45;;;;;;;;;;;2.30;99.90;;;;;;5033449;28;19916;-86
2022/01/09 12:57:11;;;;;;;;;;;2.50;99.90;;;;;;5034052;28;19918;-86
2022/01/09 12:59:37;;;;;;;;;;;2.70;99.90;;;;;;5033716;28;20276;-87
2022/01/09 13:02:10;;;;;;;;;;;2.80;99.90;;;;;;5033670;28;19914;-88
2022/01/09 13:04:35;;;;;;;;;;;3.10;99.90;;;;;;5023546;28;19914;-87
2022/01/09 13:07:01;;;;;;;;;;;3.30;99.90;;;;;;5017083;28;19967;-87
2022/01/09 13:09:28;;;;;;;;;;;3.30;99.90;;;;;;5033168;28;19921;-86
2022/01/09 13:12:01;;;;;;;;;;;3.10;99.90;;;;;;5028439;28;19913;-87
2022/01/09 13:14:28;;;;;;;;;;;3.10;99.90;;;;;;5038492;28;19913;-88
2022/01/09 13:16:53;;;;;;;;;;;3.10;99.90;;;;;;5030930;28;19918;-86
2022/01/09 13:19:19;;;;;;;;;;;2.80;99.90;;;;;;5032562;28;19914;-87
2022/01/09 13:21:46;;;;;;;;;;;2.70;99.90;;;;;;5029478;28;19913;-88
2022/01/09 13:24:12;;;;;;;;;;;2.70;99.90;;;;;;5026394;28;19917;-88
2022/01/09 13:26:54;;;;;;;;;;;2.60;99.90;;;;;;5031755;28;19917;-87
2022/01/09 13:29:21;;;;;;;;;;;2.60;99.90;;;;;;5028483;28;19928;-89
2022/01/09 13:31:49;;;;;;;;;;;2.50;99.90;;;;;;5031874;28;19971;-89
2022/01/09 13:34:16;;;;;;;;;;;2.50;99.90;;;;;;5026224;28;20502;-86
2022/01/09 13:36:43;;;;;;;;;;;2.50;99.90;;;;;;5049478;28;19914;-86
2022/01/09 13:39:11;;;;;;;;;;;2.50;99.90;;;;;;5032754;28;19916;-88
2022/01/09 13:41:39;;;;;;;;;;;2.60;99.90;;;;;;5015216;28;19925;-88
2022/01/09 13:44:05;;;;;;;;;;;2.60;99.90;;;;;;5033173;28;19909;-89
2022/01/09 13:46:31;;;;;;;;;;;2.70;99.90;;;;;;5033144;28;19909;-87
2022/01/09 13:48:56;;;;;;;;;;;2.80;99.90;;;;;;5024444;28;19996;-86
2022/01/09 13:51:39;;;;;;;;;;;2.80;99.90;;;;;;5012797;28;19967;-87
2022/01/09 13:54:05;;;;;;;;;;;2.70;99.90;;;;;;5032002;28;19913;-87
2022/01/09 13:56:31;;;;;;;;;;;2.60;99.90;;;;;;5018175;28;20012;-87
2022/01/09 13:58:56;;;;;;;;;;;2.50;99.90;;;;;;5050757;28;20022;-88
2022/01/09 14:01:42;;;;;;;;;;;2.60;99.90;;;;;;5016050;28;19928;-88
2022/01/09 14:04:21;;;;;;;;;;;2.50;99.90;;;;;;5039005;28;19981;-87
2022/01/09 14:06:56;;;;;;;;;;;2.60;99.90;;;;;;5031170;28;19933;-87
2022/01/09 14:09:29;;;;;;;;;;;2.60;99.90;;;;;;5031101;28;20019;-85
2022/01/09 14:11:56;;;;;;;;;;;2.60;99.90;;;;;;5031290;28;19920;-85
2022/01/09 14:14:28;;;;;;;;;;;2.60;99.90;;;;;;5030869;28;21229;-86
2022/01/09 14:16:57;;;;;;;;;;;2.60;99.90;;;;;;5031725;28;19909;-88
2022/01/09 14:19:22;;;;;;;;;;;2.60;99.90;;;;;;5032246;28;20316;-87
2022/01/09 14:21:52;;;;;;;;;;;2.60;99.90;;;;;;5032406;28;19913;-87
2022/01/09 14:24:17;;;;;;;;;;;2.50;99.90;;;;;;5031495;28;19921;-87
2022/01/09 14:26:54;;;;;;;;;;;2.70;99.90;;;;;;5031857;28;19916;-86
2022/01/09 14:29:32;;;;;;;;;;;2.70;99.90;;;;;;5014724;28;19925;-88
2022/01/09 14:31:58;;;;;;;;;;;2.70;99.90;;;;;;5032802;28;20007;-86
2022/01/09 14:34:23;;;;;;;;;;;2.70;99.90;;;;;;5033122;28;20075;-87
2022/01/09 14:36:49;;;;;;;;;;;2.70;99.90;;;;;;5032061;28;20006;-86